Time;durP1;ratioP1;P1;durP2;ratioP2;P2;SDS_P1;SDS_P2;PMS_P1;PMS_P2;Temp;Humidity;BMP_temperature;BMP_pressure;BME280_temperature;BME280_humidity;BME280_pressure;Samples;Min_cycle;Max_cycle;Signal;HPM_P1;HPM_P2
2022/04/18 00:01:04;;;;;;;0.80;0.80;;;;;;;4.92;58.36;94540.44;4973594;28;20230;-61
2022/04/18 00:03:29;;;;;;;0.60;0.60;;;;;;;4.96;58.34;94536.63;4984751;28;20229;-61
2022/04/18 00:05:54;;;;;;;0.60;0.60;;;;;;;4.86;58.87;94533.97;4972440;28;20275;-61
2022/04/18 00:08:20;;;;;;;0.60;0.60;;;;;;;4.88;58.12;94526.84;4964103;28;20227;-61
2022/04/18 00:10:45;;;;;;;0.80;0.80;;;;;;;4.96;58.00;94531.44;4966430;28;20266;-61
2022/04/18 00:13:11;;;;;;;0.80;0.80;;;;;;;4.98;58.75;94530.34;4964197;28;20255;-62
2022/04/18 00:15:36;;;;;;;0.90;0.90;;;;;;;4.91;58.58;94528.38;4966964;28;20239;-61
2022/04/18 00:18:02;;;;;;;0.97;0.80;;;;;;;4.92;58.47;94530.03;4961664;28;20204;-61
2022/04/18 00:20:27;;;;;;;1.30;1.00;;;;;;;4.92;58.24;94530.88;4963862;28;20320;-61
2022/04/18 00:22:53;;;;;;;1.03;0.93;;;;;;;4.93;57.99;94529.09;4962270;28;20248;-62
2022/04/18 00:25:18;;;;;;;0.90;0.90;;;;;;;5.00;57.78;94536.25;4955642;28;20244;-60
2022/04/18 00:27:43;;;;;;;0.73;0.73;;;;;;;4.98;58.09;94526.91;4945824;28;20240;-61
2022/04/18 00:30:09;;;;;;;0.77;0.77;;;;;;;4.93;57.71;94516.88;4942989;28;20240;-60
2022/04/18 00:32:35;;;;;;;1.00;1.00;;;;;;;4.96;57.58;94521.00;4960735;28;20228;-60
2022/04/18 00:35:02;;;;;;;0.93;0.93;;;;;;;4.89;57.48;94512.03;4974734;28;20239;-61
2022/04/18 00:37:28;;;;;;;0.80;0.80;;;;;;;4.81;57.92;94523.09;4955996;28;20236;-61
2022/04/18 00:39:53;;;;;;;1.30;1.20;;;;;;;4.96;58.04;94518.41;4966328;28;20269;-60
2022/04/18 00:42:18;;;;;;;0.90;0.90;;;;;;;4.91;58.22;94521.38;4964534;28;20282;-61
2022/04/18 00:44:44;;;;;;;1.10;1.00;;;;;;;4.93;57.59;94518.66;4964169;28;20204;-60
2022/04/18 00:47:09;;;;;;;1.10;0.90;;;;;;;4.95;56.70;94519.38;4975369;28;20258;-61
2022/04/18 00:49:35;;;;;;;0.90;0.90;;;;;;;5.01;56.79;94513.63;4981432;28;20227;-61
2022/04/18 00:52:03;;;;;;;1.10;1.00;;;;;;;5.05;56.64;94510.63;4972102;28;20227;-60
2022/04/18 00:54:30;;;;;;;0.90;0.90;;;;;;;5.03;56.56;94504.72;4964891;28;20208;-60
2022/04/18 00:56:56;;;;;;;0.90;0.90;;;;;;;4.92;57.30;94515.22;4966282;28;20274;-60
2022/04/18 00:59:22;;;;;;;1.20;1.10;;;;;;;4.97;57.69;94512.22;4961640;28;20225;-61
2022/04/18 01:01:48;;;;;;;1.20;1.10;;;;;;;5.03;57.25;94519.53;4953106;28;20225;-60
2022/04/18 01:04:14;;;;;;;0.90;0.90;;;;;;;5.02;57.93;94512.66;4952054;28;20268;-60
2022/04/18 01:06:40;;;;;;;0.93;0.93;;;;;;;5.01;57.21;94511.84;4945446;28;20235;-61
2022/04/18 01:09:06;;;;;;;1.00;1.00;;;;;;;4.75;59.22;94503.59;4972438;28;20217;-60
2022/04/18 01:11:34;;;;;;;1.10;1.10;;;;;;;4.89;59.52;94505.03;4967545;28;20332;-60
2022/04/18 01:14:03;;;;;;;1.10;1.07;;;;;;;4.87;59.58;94506.97;4945066;28;20248;-61
2022/04/18 01:16:29;;;;;;;1.10;1.00;;;;;;;4.94;57.58;94499.47;4962957;28;20220;-60
2022/04/18 01:18:56;;;;;;;1.00;1.00;;;;;;;4.99;56.76;94498.09;4978154;28;20229;-61
2022/04/18 01:21:21;;;;;;;1.03;0.97;;;;;;;5.07;57.29;94497.47;4962686;28;20216;-61
2022/04/18 01:23:47;;;;;;;1.00;1.00;;;;;;;5.10;58.70;94499.78;4969935;28;20266;-61
2022/04/18 01:28:59;;;;;;;1.20;1.10;;;;;;;5.06;57.26;94498.44;4977969;28;20263;-61
2022/04/18 01:31:28;;;;;;;0.90;0.90;;;;;;;4.90;59.89;94495.47;4971804;28;20231;-61
2022/04/18 01:33:54;;;;;;;1.07;0.97;;;;;;;4.96;60.54;94492.34;4960148;28;20248;-61
2022/04/18 01:36:20;;;;;;;0.90;0.90;;;;;;;4.98;58.24;94495.66;4963492;28;20240;-61
2022/04/18 01:38:45;;;;;;;1.23;1.10;;;;;;;4.98;57.36;94482.63;4961409;28;20209;-61
2022/04/18 01:41:11;;;;;;;0.80;0.80;;;;;;;4.88;56.64;94476.53;4962779;28;20232;-61
2022/04/18 01:43:37;;;;;;;0.70;0.70;;;;;;;4.95;56.66;94477.69;4968358;28;20311;-61
2022/04/18 01:46:02;;;;;;;2.00;1.00;;;;;;;4.89;57.04;94472.97;4972559;28;20310;-61
2022/04/18 01:48:28;;;;;;;1.00;0.90;;;;;;;4.91;56.66;94465.84;4968046;28;20212;-61
2022/04/18 01:50:53;;;;;;;0.90;0.90;;;;;;;4.97;56.27;94468.78;4970093;28;20216;-61
2022/04/18 01:53:19;;;;;;;1.17;1.00;;;;;;;4.95;55.89;94469.88;4966971;28;20263;-61
2022/04/18 01:55:44;;;;;;;1.30;1.20;;;;;;;4.82;56.65;94460.47;4966606;28;20243;-61
2022/04/18 01:58:10;;;;;;;1.90;1.10;;;;;;;4.90;56.63;94462.44;4971566;28;20287;-61
2022/04/18 02:00:35;;;;;;;0.97;0.93;;;;;;;4.87;56.18;94457.47;4979735;28;20298;-61
2022/04/18 02:03:01;;;;;;;1.10;1.00;;;;;;;4.97;56.16;94462.72;4970960;28;20215;-61
2022/04/18 02:05:26;;;;;;;1.00;0.90;;;;;;;4.89;55.80;94449.53;4972094;28;20224;-61
2022/04/18 02:07:52;;;;;;;1.10;1.00;;;;;;;4.91;55.76;94448.44;4976814;28;20307;-61
2022/04/18 02:10:18;;;;;;;3.37;0.97;;;;;;;4.92;55.93;94451.84;4968238;28;20327;-61
2022/04/18 02:12:43;;;;;;;1.20;1.10;;;;;;;4.91;56.17;94447.63;4967878;28;20244;-61
2022/04/18 02:15:09;;;;;;;1.20;0.97;;;;;;;4.91;55.75;94445.84;4963053;28;20275;-61
2022/04/18 02:17:35;;;;;;;1.03;1.00;;;;;;;4.91;56.61;94439.81;4962627;28;20260;-61
2022/04/18 02:20:00;;;;;;;1.53;1.13;;;;;;;4.98;56.74;94439.16;4960503;28;20223;-70
2022/04/18 02:22:27;;;;;;;1.30;1.20;;;;;;;4.99;56.67;94437.38;4963953;28;20221;-59
2022/04/18 02:24:56;;;;;;;0.97;0.97;;;;;;;4.99;56.75;94434.75;4960712;28;20232;-58
2022/04/18 02:27:22;;;;;;;1.63;0.83;;;;;;;5.04;56.20;94436.00;4972033;28;20240;-65
2022/04/18 02:29:47;;;;;;;1.60;1.20;;;;;;;5.13;56.13;94425.75;4978246;28;20316;-62
2022/04/18 02:34:56;;;;;;;1.23;1.13;;;;;;;5.02;55.24;94432.69;4965476;28;20278;-71
2022/04/18 02:37:22;;;;;;;1.37;1.10;;;;;;;5.01;55.26;94438.88;4973432;28;20227;-59
2022/04/18 02:39:47;;;;;;;1.00;1.00;;;;;;;4.99;55.34;94434.75;4969323;28;20283;-65
2022/04/18 02:42:13;;;;;;;1.10;1.00;;;;;;;4.91;55.92;94421.56;4966258;28;20212;-62
2022/04/18 02:44:38;;;;;;;1.50;1.10;;;;;;;4.94;56.86;94422.13;4967651;28;20219;-63
2022/04/18 02:47:04;;;;;;;1.47;1.20;;;;;;;4.94;56.10;94426.50;4965684;28;20232;-58
2022/04/18 02:49:31;;;;;;;0.90;0.90;;;;;;;4.93;55.43;94433.50;4969199;28;20296;-58
2022/04/18 02:51:56;;;;;;;1.20;1.10;;;;;;;4.87;56.15;94434.03;4978211;28;20401;-57
2022/04/18 02:54:22;;;;;;;1.87;1.27;;;;;;;4.71;57.33;94434.53;4966371;28;20292;-58
2022/04/18 02:56:47;;;;;;;1.30;1.17;;;;;;;4.75;57.14;94425.47;4968355;28;20215;-58
2022/04/18 02:59:13;;;;;;;1.43;1.00;;;;;;;4.74;57.57;94423.03;4986389;28;20238;-60
2022/04/18 03:01:38;;;;;;;0.83;0.83;;;;;;;4.69;57.16;94419.97;4967024;28;20239;-57
2022/04/18 03:04:04;;;;;;;1.03;0.97;;;;;;;4.65;57.82;94416.78;4966542;28;20243;-58
2022/04/18 03:06:29;;;;;;;1.30;1.00;;;;;;;4.76;57.97;94431.53;4960486;28;20336;-57
2022/04/18 03:08:55;;;;;;;1.10;1.00;;;;;;;4.79;58.69;94420.84;4963573;28;20224;-58
2022/04/18 03:11:20;;;;;;;1.03;1.00;;;;;;;4.74;58.23;94426.44;4963808;28;20228;-58
2022/04/18 03:13:46;;;;;;;1.30;1.20;;;;;;;4.51;58.44;94428.38;4969671;28;20251;-62
2022/04/18 03:16:13;;;;;;;1.03;1.00;;;;;;;4.58;59.30;94416.50;4960992;28;20225;-62
2022/04/18 03:18:39;;;;;;;1.10;1.00;;;;;;;4.63;58.86;94416.13;4945701;28;20300;-62
2022/04/18 03:21:05;;;;;;;1.20;1.10;;;;;;;4.65;58.92;94422.00;4950118;28;20223;-58
2022/04/18 03:23:32;;;;;;;2.10;1.10;;;;;;;4.52;59.56;94418.81;4967356;28;20235;-58
2022/04/18 03:25:57;;;;;;;1.20;1.10;;;;;;;4.44;59.92;94424.66;4979039;28;20219;-71
2022/04/18 03:28:25;;;;;;;0.70;0.70;;;;;;;4.59;59.82;94422.53;4963019;28;20232;-61
2022/04/18 03:30:50;;;;;;;1.27;0.90;;;;;;;4.61;59.40;94421.44;4946815;28;20237;-61
2022/04/18 03:33:16;;;;;;;1.07;0.90;;;;;;;4.54;58.92;94417.69;4947140;28;20204;-61
2022/04/18 03:39:50;;;;;;;1.00;0.73;;;;;;;4.48;59.09;94420.00;4950682;28;20208;-66
2022/04/18 03:41:11;;;;;;;0.83;0.83;;;;;;;4.51;59.86;94420.56;4963456;28;20239;-62
2022/04/18 03:43:37;;;;;;;0.83;0.70;;;;;;;4.51;58.99;94424.97;4970872;28;20232;-71
2022/04/18 03:46:02;;;;;;;1.10;1.00;;;;;;;4.50;59.25;94416.31;4963636;28;20322;-62
2022/04/18 03:48:28;;;;;;;0.73;0.70;;;;;;;4.58;57.98;94416.50;4971070;28;20208;-63
2022/04/18 03:50:53;;;;;;;1.23;0.97;;;;;;;4.57;58.44;94421.81;4961888;28;20222;-58
2022/04/18 03:53:19;;;;;;;1.20;1.10;;;;;;;4.62;58.58;94412.69;4963406;28;20225;-56
2022/04/18 03:55:44;;;;;;;1.00;1.00;;;;;;;4.47;58.01;94418.38;4966797;28;20238;-59
2022/04/18 03:58:09;;;;;;;1.67;1.10;;;;;;;4.40;58.41;94418.06;4967263;28;20224;-58
2022/04/18 04:00:36;;;;;;;0.90;0.90;;;;;;;4.46;58.33;94421.91;4964377;28;20223;-61
2022/04/18 04:03:01;;;;;;;1.00;0.93;;;;;;;4.49;58.68;94430.31;4961407;28;20207;-62
2022/04/18 04:05:27;;;;;;;0.97;0.97;;;;;;;4.47;59.32;94431.41;4962013;28;20235;-71
2022/04/18 04:07:53;;;;;;;2.77;1.03;;;;;;;4.28;58.71;94430.34;4941348;28;20232;-64
2022/04/18 04:10:18;;;;;;;1.60;1.10;;;;;;;4.34;58.74;94429.81;4955094;28;20235;-60
2022/04/18 04:12:44;;;;;;;1.33;1.23;;;;;;;4.56;58.54;94433.22;4961610;28;20232;-61
2022/04/18 04:15:09;;;;;;;1.77;1.40;;;;;;;4.35;59.10;94428.03;4956911;28;20373;-60
2022/04/18 04:17:35;;;;;;;1.23;1.13;;;;;;;4.36;59.48;94435.72;4944659;28;20472;-60
2022/04/18 04:20:01;;;;;;;1.87;1.30;;;;;;;4.45;59.88;94435.91;4957505;28;20258;-61
2022/04/18 04:22:26;;;;;;;1.20;1.10;;;;;;;4.59;58.15;94427.75;4969591;28;20229;-62
2022/04/18 04:24:52;;;;;;;1.30;1.20;;;;;;;4.71;57.58;94425.88;4962091;28;20250;-61
2022/04/18 04:27:17;;;;;;;1.30;1.20;;;;;;;4.53;58.71;94429.09;4968735;28;20231;-62
2022/04/18 04:29:42;;;;;;;1.47;1.30;;;;;;;4.51;59.15;94436.19;4963237;28;20215;-61
2022/04/18 04:32:08;;;;;;;1.20;1.10;;;;;;;4.52;58.98;94435.25;4961824;28;20232;-62
2022/04/18 04:34:34;;;;;;;1.50;1.30;;;;;;;4.55;59.05;94434.19;4955867;28;20235;-62
2022/04/18 04:37:00;;;;;;;1.50;1.40;;;;;;;4.66;58.48;94439.28;4939755;28;20249;-60
2022/04/18 04:39:25;;;;;;;1.40;1.30;;;;;;;4.68;58.86;94436.53;4946118;28;20201;-66
2022/04/18 04:41:51;;;;;;;3.27;1.60;;;;;;;4.75;58.53;94428.09;4968128;28;20208;-61
2022/04/18 04:44:16;;;;;;;2.87;1.40;;;;;;;4.83;57.50;94440.44;4967847;28;20332;-60
2022/04/18 04:46:43;;;;;;;3.17;1.80;;;;;;;4.82;57.81;94442.25;4966173;28;20223;-61
2022/04/18 04:49:09;;;;;;;2.33;1.83;;;;;;;4.81;57.85;94443.22;4965999;28;20349;-61
2022/04/18 04:51:35;;;;;;;1.60;1.50;;;;;;;4.98;56.76;94440.94;4955667;28;20255;-61
2022/04/18 04:54:00;;;;;;;1.70;1.60;;;;;;;4.71;56.63;94442.34;4957146;28;20311;-61
2022/04/18 04:56:26;;;;;;;2.60;2.00;;;;;;;4.35;57.41;94438.44;4964502;28;20228;-62
2022/04/18 04:58:53;;;;;;;1.97;1.87;;;;;;;4.71;57.24;94442.34;4970935;28;20231;-61
2022/04/18 05:01:19;;;;;;;11.50;3.17;;;;;;;4.86;57.59;94442.78;4971650;28;20232;-61
2022/04/18 05:03:45;;;;;;;3.00;1.90;;;;;;;5.04;57.35;94448.22;4965649;28;20223;-61
2022/04/18 05:06:11;;;;;;;1.90;1.73;;;;;;;5.02;56.41;94452.72;4966885;28;20215;-62
2022/04/18 05:08:36;;;;;;;1.90;1.80;;;;;;;5.13;55.91;94444.81;4968028;28;20227;-62
2022/04/18 05:11:02;;;;;;;2.13;1.93;;;;;;;5.15;56.00;94439.47;4977033;28;20244;-61
2022/04/18 05:13:28;;;;;;;4.10;2.07;;;;;;;5.35;55.70;94440.34;4971804;28;20288;-62
2022/04/18 05:15:53;;;;;;;2.87;2.50;;;;;;;5.29;55.74;94441.69;4971994;28;20257;-62
2022/04/18 05:18:18;;;;;;;3.07;2.20;;;;;;;5.41;55.28;94439.81;4971949;28;20212;-58
2022/04/18 05:20:47;;;;;;;3.80;2.40;;;;;;;5.47;55.04;94450.50;4969408;28;20380;-58
2022/04/18 05:23:17;;;;;;;3.30;2.57;;;;;;;5.56;54.77;94443.69;4968667;28;20234;-65
2022/04/18 05:25:42;;;;;;;3.20;2.20;;;;;;;5.48;54.73;94446.13;4964378;28;20232;-65
2022/04/18 05:28:08;;;;;;;3.27;2.10;;;;;;;5.48;54.55;94446.13;4978801;28;20287;-67
2022/04/18 05:30:35;;;;;;;2.40;1.93;;;;;;;5.59;52.51;94445.19;4966915;28;20230;-66
2022/04/18 05:33:01;;;;;;;2.27;2.07;;;;;;;5.45;52.19;94454.22;4969141;28;20207;-66
2022/04/18 05:35:26;;;;;;;2.70;2.40;;;;;;;5.51;52.63;94451.91;4965148;28;20220;-67
2022/04/18 05:37:52;;;;;;;2.37;2.10;;;;;;;5.64;53.29;94446.44;4963021;28;20243;-66
2022/04/18 05:40:17;;;;;;;3.13;2.20;;;;;;;5.63;54.03;94443.94;4962979;28;20240;-67
2022/04/18 05:42:43;;;;;;;2.80;2.20;;;;;;;5.59;53.75;94446.03;4959831;28;20232;-66
2022/04/18 05:45:09;;;;;;;2.70;2.50;;;;;;;5.73;52.84;94450.00;4965794;28;20266;-67
2022/04/18 05:47:34;;;;;;;2.83;2.40;;;;;;;5.74;53.10;94446.44;4946911;28;20339;-66
2022/04/18 05:50:00;;;;;;;2.87;2.13;;;;;;;5.69;52.76;94452.06;4966972;28;20227;-69
2022/04/18 05:52:25;;;;;;;2.53;2.30;;;;;;;5.57;53.08;94450.53;4966810;28;20228;-69
2022/04/18 05:54:51;;;;;;;4.17;2.70;;;;;;;5.59;52.98;94448.63;4965012;28;20754;-70
2022/04/18 05:57:16;;;;;;;2.60;2.40;;;;;;;5.59;52.84;94463.47;4980892;28;20220;-59
2022/04/18 05:59:42;;;;;;;2.80;2.60;;;;;;;5.57;52.20;94460.16;4971216;28;20263;-59
2022/04/18 06:02:07;;;;;;;2.60;2.40;;;;;;;5.51;53.15;94458.91;4970908;28;20236;-59
2022/04/18 06:04:33;;;;;;;2.40;2.20;;;;;;;5.57;53.53;94467.97;4961750;28;20385;-60
2022/04/18 06:06:58;;;;;;;4.17;2.40;;;;;;;5.61;53.48;94466.72;4957944;28;20244;-69
2022/04/18 06:09:24;;;;;;;2.30;2.10;;;;;;;5.54;53.58;94466.47;4987591;28;20220;-69
2022/04/18 06:11:49;;;;;;;2.63;2.43;;;;;;;5.72;52.93;94459.63;4969939;28;20207;-71
2022/04/18 06:14:15;;;;;;;4.97;2.30;;;;;;;5.89;52.89;94470.34;4957660;28;20227;-68
2022/04/18 06:16:40;;;;;;;2.90;2.60;;;;;;;6.11;52.04;94459.66;4964541;28;20228;-68
2022/04/18 06:19:05;;;;;;;2.67;2.30;;;;;;;6.31;51.06;94460.47;4975347;28;20225;-68
2022/04/18 06:21:31;;;;;;;2.93;2.50;;;;;;;6.37;50.69;94464.31;4980253;28;20227;-69
2022/04/18 06:23:56;;;;;;;3.10;2.80;;;;;;;6.62;50.38;94473.31;4986071;28;20205;-69
2022/04/18 06:26:22;;;;;;;3.40;3.20;;;;;;;6.97;49.58;94464.81;4971704;28;20224;-70
2022/04/18 06:28:47;;;;;;;4.57;2.87;;;;;;;7.05;49.69;94467.53;4958254;28;20224;-67
2022/04/18 06:31:13;;;;;;;3.20;2.20;;;;;;;7.11;49.00;94468.78;4979938;28;20238;-69
2022/04/18 06:33:38;;;;;;;4.07;2.10;;;;;;;7.04;47.97;94463.28;4971005;28;20286;-69
2022/04/18 06:36:04;;;;;;;2.33;2.13;;;;;;;6.99;49.01;94465.50;4967829;28;20226;-69
2022/04/18 06:38:29;;;;;;;2.17;2.00;;;;;;;6.97;49.40;94477.06;4968115;28;20232;-68
2022/04/18 06:40:58;;;;;;;2.30;2.10;;;;;;;6.80;49.99;94471.63;4965598;28;20351;-57
2022/04/18 06:43:23;;;;;;;2.47;2.27;;;;;;;7.02;50.33;94473.06;4972472;28;20256;-68
2022/04/18 06:45:49;;;;;;;2.70;2.50;;;;;;;7.12;49.08;94477.44;4962699;28;20225;-70
2022/04/18 06:48:14;;;;;;;3.10;2.63;;;;;;;7.00;49.62;94471.56;4964995;28;20200;-69
2022/04/18 06:50:40;;;;;;;2.87;2.53;;;;;;;7.00;49.51;94472.41;4966439;28;20227;-71
2022/04/18 06:53:05;;;;;;;5.87;2.93;;;;;;;7.03;48.93;94473.88;4969848;28;20244;-70
2022/04/18 06:56:58;;;;;;;2.40;2.20;;;;;;;7.06;48.56;94477.06;4964155;28;20228;-70
2022/04/18 06:58:16;;;;;;;3.70;2.60;;;;;;;7.13;49.04;94472.06;4961789;28;20288;-71
2022/04/18 07:00:42;;;;;;;2.57;2.37;;;;;;;7.37;48.83;94479.38;4977101;28;20314;-70
2022/04/18 07:03:07;;;;;;;2.50;2.30;;;;;;;7.34;48.37;94474.44;4964032;28;20212;-69
2022/04/18 07:05:33;;;;;;;3.00;2.30;;;;;;;7.53;48.42;94480.56;4965255;28;20242;-67
2022/04/18 07:07:58;;;;;;;2.43;2.23;;;;;;;7.66;47.60;94481.03;4954955;28;20228;-70
2022/04/18 07:10:23;;;;;;;3.23;2.30;;;;;;;7.70;47.65;94475.34;4956690;28;20232;-70
2022/04/18 07:12:49;;;;;;;3.60;2.53;;;;;;;7.80;47.16;94479.69;4963293;28;20240;-69
2022/04/18 07:15:14;;;;;;;2.90;2.60;;;;;;;7.73;47.50;94476.84;4947615;28;20216;-69
2022/04/18 07:17:40;;;;;;;2.87;2.20;;;;;;;7.77;47.23;94482.59;4948424;28;20249;-70
2022/04/18 07:20:06;;;;;;;4.27;2.10;;;;;;;7.71;47.82;94484.03;4940398;28;20287;-70
2022/04/18 07:22:31;;;;;;;1.97;1.87;;;;;;;7.78;47.68;94479.84;4957964;28;20290;-70
2022/04/18 07:24:58;;;;;;;3.70;2.27;;;;;;;7.72;47.75;94475.19;4961003;28;20224;-69
2022/04/18 07:27:23;;;;;;;4.17;2.47;;;;;;;7.76;48.02;94473.94;4963429;28;20243;-69
2022/04/18 07:29:49;;;;;;;2.50;2.23;;;;;;;7.82;48.14;94472.53;4961314;28;20291;-69
2022/04/18 07:32:14;;;;;;;2.40;2.20;;;;;;;7.86;48.46;94479.94;4960504;28;20216;-69
2022/04/18 07:34:40;;;;;;;2.40;2.20;;;;;;;7.79;48.27;94468.41;4964057;28;20228;-68
2022/04/18 07:37:05;;;;;;;3.37;3.07;;;;;;;7.70;48.36;94474.53;4967666;28;20232;-70
2022/04/18 07:39:30;;;;;;;2.30;2.10;;;;;;;7.56;48.46;94472.41;4965665;28;20239;-69
2022/04/18 07:41:56;;;;;;;2.23;2.03;;;;;;;7.39;48.88;94482.69;4966243;28;20196;-73
2022/04/18 07:44:22;;;;;;;2.43;2.10;;;;;;;7.23;49.68;94485.09;4966392;28;20236;-68
2022/04/18 07:46:47;;;;;;;3.07;2.10;;;;;;;7.20;49.65;94480.16;4968434;28;20240;-68
2022/04/18 07:49:13;;;;;;;2.80;2.50;;;;;;;7.22;49.52;94489.50;4968120;28;20231;-70
2022/04/18 07:51:42;;;;;;;3.40;2.30;;;;;;;7.20;49.28;94491.44;4973253;28;20228;-69
2022/04/18 07:54:12;;;;;;;4.47;2.47;;;;;;;7.25;49.72;94499.69;4988762;28;20221;-70
2022/04/18 07:56:38;;;;;;;3.40;3.10;;;;;;;7.13;50.17;94486.94;4967070;28;20240;-68
2022/04/18 07:59:05;;;;;;;3.37;3.07;;;;;;;7.17;50.50;94493.53;4967049;28;20220;-70
2022/04/18 08:01:31;;;;;;;2.17;2.00;;;;;;;7.25;49.69;94489.22;4963485;28;20232;-71
2022/04/18 08:04:00;;;;;;;2.73;2.10;;;;;;;7.11;50.60;94494.09;4950340;28;20237;-68
2022/04/18 08:06:29;;;;;;;4.70;1.97;;;;;;;7.09;50.73;94490.81;4933778;28;20204;-70
2022/04/18 08:08:55;;;;;;;1.90;1.80;;;;;;;7.25;50.45;94497.06;4958018;28;20204;-70
2022/04/18 08:11:20;;;;;;;2.23;2.00;;;;;;;7.34;50.10;94490.13;4959612;28;20211;-71
2022/04/18 08:13:47;;;;;;;2.40;2.20;;;;;;;7.61;49.86;94483.25;4960379;28;20236;-70
2022/04/18 08:16:13;;;;;;;4.17;1.97;;;;;;;7.70;48.95;94490.25;4956173;28;20318;-69
2022/04/18 08:18:43;;;;;;;2.30;2.20;;;;;;;7.48;48.83;94489.69;4974251;28;20251;-71
2022/04/18 08:21:09;;;;;;;4.73;2.40;;;;;;;7.43;48.71;94494.53;4958690;28;20282;-65
2022/04/18 08:23:35;;;;;;;2.37;2.17;;;;;;;7.37;50.14;94500.31;4950995;28;20314;-65
2022/04/18 08:26:02;;;;;;;3.63;2.30;;;;;;;7.21;49.78;94494.88;4961131;28;20223;-67
2022/04/18 08:28:28;;;;;;;2.23;2.07;;;;;;;7.20;49.86;94496.69;4972236;28;20243;-67
2022/04/18 08:30:54;;;;;;;3.63;2.00;;;;;;;7.09;49.82;94494.25;4959917;28;20248;-69
2022/04/18 08:33:20;;;;;;;4.37;2.27;;;;;;;7.27;49.52;94496.91;4964576;28;20215;-69
2022/04/18 08:35:46;;;;;;;2.70;2.00;;;;;;;7.32;48.99;94501.72;4961130;28;20204;-70
2022/04/18 08:38:12;;;;;;;2.87;2.10;;;;;;;7.23;49.68;94499.00;4962953;28;20227;-69
2022/04/18 08:40:39;;;;;;;4.03;3.50;;;;;;;6.95;49.83;94492.91;4960310;28;20237;-69
2022/04/18 08:43:05;;;;;;;1.90;1.77;;;;;;;7.00;49.89;94497.69;4947990;28;20227;-70
2022/04/18 08:45:30;;;;;;;3.37;2.07;;;;;;;6.87;50.08;94502.41;4970309;28;20223;-70
2022/04/18 08:53:31;;;;;;;2.57;1.77;;;;;;;6.65;51.16;94496.56;4964710;28;20248;-70
2022/04/18 08:55:58;;;;;;;3.27;1.97;;;;;;;6.61;50.43;94492.59;4975726;28;20287;-70
2022/04/18 08:58:26;;;;;;;2.40;1.80;;;;;;;6.67;50.72;94494.63;4960278;28;20242;-72
2022/04/18 09:00:53;;;;;;;1.80;1.60;;;;;;;6.75;49.69;94491.31;4962844;28;20232;-73
2022/04/18 09:03:18;;;;;;;1.90;1.70;;;;;;;6.51;50.30;94497.00;4966435;28;20220;-70
2022/04/18 09:05:44;;;;;;;2.83;1.80;;;;;;;6.50;51.04;94493.56;4964075;28;20228;-68
2022/04/18 09:08:10;;;;;;;1.83;1.57;;;;;;;6.69;50.05;94490.09;4967537;28;20242;-72
2022/04/18 09:10:38;;;;;;;2.40;1.67;;;;;;;6.74;50.21;94495.72;4955110;28;20227;-71
2022/04/18 09:13:11;;;;;;;1.87;1.77;;;;;;;6.70;49.58;94485.69;4964929;28;20227;-69
2022/04/18 09:15:38;;;;;;;1.93;1.80;;;;;;;6.93;48.02;94481.78;4978320;28;20224;-69
2022/04/18 09:18:23;;;;;;;1.60;1.30;;;;;;;6.60;47.86;94480.47;4974449;28;20212;-69
2022/04/18 09:21:01;;;;;;;1.47;1.30;;;;;;;6.74;47.67;94477.44;4959254;28;20228;-69
2022/04/18 09:23:36;;;;;;;2.23;1.80;;;;;;;6.71;47.94;94476.88;4965989;28;20243;-68
2022/04/18 09:26:03;;;;;;;2.40;1.73;;;;;;;6.82;47.79;94485.38;4949654;28;20228;-68
2022/04/18 09:28:33;;;;;;;3.47;1.70;;;;;;;6.90;48.55;94486.47;4959625;28;20240;-69
2022/04/18 09:31:00;;;;;;;1.70;1.60;;;;;;;6.99;48.63;94480.38;4973832;28;20267;-69
2022/04/18 09:33:30;;;;;;;1.40;1.30;;;;;;;7.07;47.58;94481.31;4961327;28;20204;-69
2022/04/18 09:36:09;;;;;;;2.07;1.50;;;;;;;7.05;47.18;94479.81;4963785;28;20216;-68
2022/04/18 09:38:49;;;;;;;1.73;1.50;;;;;;;7.14;48.07;94483.38;4966466;28;20232;-65
2022/04/18 09:41:21;;;;;;;2.63;1.60;;;;;;;7.26;48.20;94480.41;4963890;28;20552;-66
2022/04/18 09:43:49;;;;;;;1.30;1.20;;;;;;;7.28;47.13;94482.88;4977433;28;20240;-66
2022/04/18 09:46:15;;;;;;;1.10;1.00;;;;;;;6.74;47.91;94476.63;4966836;28;20351;-66
2022/04/18 09:48:42;;;;;;;1.03;1.00;;;;;;;6.57;48.44;94478.97;4964030;28;20263;-66
2022/04/18 09:51:13;;;;;;;5.07;1.40;;;;;;;6.73;48.85;94480.19;4962908;28;20217;-65
2022/04/18 09:53:40;;;;;;;1.00;1.00;;;;;;;6.96;48.03;94471.03;4972946;28;20236;-63
2022/04/18 09:56:08;;;;;;;1.20;1.10;;;;;;;7.15;46.93;94469.31;4968238;28;20235;-66
2022/04/18 09:58:35;;;;;;;4.43;4.03;;;;;;;7.25;47.00;94463.06;4979788;28;20232;-66
2022/04/18 10:01:04;;;;;;;2.70;2.50;;;;;;;6.91;46.86;94462.78;4964193;28;20224;-66
2022/04/18 10:03:30;;;;;;;2.20;1.20;;;;;;;6.80;47.23;94455.97;4960287;28;20208;-68
2022/04/18 10:05:57;;;;;;;1.93;1.77;;;;;;;6.73;47.48;94467.94;4962582;28;20212;-67
2022/04/18 10:08:23;;;;;;;1.30;1.20;;;;;;;6.87;47.08;94463.22;4983052;28;20297;-67
2022/04/18 10:10:48;;;;;;;5.23;3.73;;;;;;;6.96;47.13;94459.75;4972463;28;20232;-68
2022/04/18 10:13:14;;;;;;;2.53;2.33;;;;;;;7.20;46.89;94459.25;4961983;28;20253;-67
2022/04/18 10:15:39;;;;;;;1.40;1.30;;;;;;;6.94;47.46;94457.28;4941300;28;20252;-66
2022/04/18 10:18:07;;;;;;;2.63;2.43;;;;;;;7.09;47.25;94454.22;4943822;28;20204;-67
2022/04/18 10:21:06;;;;;;;2.87;2.27;;;;;;;7.25;46.54;94457.84;4944543;28;20267;-67
2022/04/18 10:24:04;;;;;;;1.73;1.60;;;;;;;7.11;47.04;94452.25;4943772;28;20236;-68
2022/04/18 10:26:48;;;;;;;2.87;1.30;;;;;;;7.22;45.55;94449.47;4966312;28;20236;-68
2022/04/18 10:29:20;;;;;;;1.83;1.37;;;;;;;7.14;45.73;94446.75;4956463;28;20231;-69
2022/04/18 10:31:48;;;;;;;2.67;1.50;;;;;;;7.18;46.44;94448.09;4968653;28;20234;-66
2022/04/18 10:34:14;;;;;;;1.50;1.30;;;;;;;7.27;46.31;94453.31;4950577;28;20267;-68
2022/04/18 10:36:47;;;;;;;1.60;1.20;;;;;;;7.15;45.93;94454.44;4966215;28;20251;-65
2022/04/18 10:39:14;;;;;;;1.37;1.27;;;;;;;7.16;45.80;94444.81;4967127;28;20195;-71
2022/04/18 10:41:41;;;;;;;2.10;1.63;;;;;;;7.17;45.28;94441.25;4951882;28;20211;-72
2022/04/18 10:44:09;;;;;;;1.90;1.53;;;;;;;7.02;46.22;94448.72;4970556;28;20232;-72
2022/04/18 10:46:58;;;;;;;2.70;1.53;;;;;;;7.11;45.80;94440.03;4965276;28;20818;-71
2022/04/18 10:49:24;;;;;;;6.10;2.17;;;;;;;7.21;45.94;94437.34;4959523;28;20287;-69
2022/04/18 10:51:51;;;;;;;3.53;1.50;;;;;;;7.09;46.89;94436.72;4946964;28;20358;-71
2022/04/18 10:54:30;;;;;;;1.87;1.40;;;;;;;7.17;46.26;94439.44;4965865;28;20215;-64
2022/04/18 10:56:57;;;;;;;2.10;1.77;;;;;;;7.34;45.71;94439.63;4964165;28;20207;-69
2022/04/18 10:59:28;;;;;;;3.53;2.10;;;;;;;7.23;46.47;94440.66;4963360;28;20238;-70
2022/04/18 11:01:55;;;;;;;3.43;1.90;;;;;;;7.30;47.05;94431.25;4949196;28;20250;-68
2022/04/18 11:04:33;;;;;;;2.30;1.90;;;;;;;7.37;46.44;94436.72;4963455;28;20306;-69
2022/04/18 11:07:05;;;;;;;2.33;1.83;;;;;;;7.36;46.51;94435.91;4964590;28;20227;-69
2022/04/18 11:09:35;;;;;;;2.23;1.80;;;;;;;7.24;46.00;94427.44;4964617;28;20309;-70
2022/04/18 11:12:05;;;;;;;2.30;2.10;;;;;;;7.32;46.09;94428.47;4961855;28;20209;-69
2022/04/18 11:14:48;;;;;;;2.67;2.07;;;;;;;7.29;45.74;94429.59;4962288;28;20228;-69
2022/04/18 11:17:28;;;;;;;2.60;1.60;;;;;;;7.38;45.62;94428.75;4958170;28;20225;-70
2022/04/18 11:19:53;;;;;;;3.47;1.80;;;;;;;7.38;45.75;94430.53;4946585;28;20260;-71
2022/04/18 11:22:24;;;;;;;1.60;1.40;;;;;;;7.30;44.68;94420.81;4958542;28;20263;-72
2022/04/18 11:24:49;;;;;;;2.47;1.37;;;;;;;7.30;44.53;94418.19;4967455;28;20242;-67
2022/04/18 11:27:31;;;;;;;1.53;1.20;;;;;;;7.18;44.34;94421.97;4978165;28;20248;-67
2022/04/18 11:30:29;;;;;;;2.40;1.60;;;;;;;7.16;44.53;94421.28;4961243;28;20216;-64
2022/04/18 11:32:55;;;;;;;2.13;1.50;;;;;;;7.11;44.03;94419.13;4945362;28;20237;-65
2022/04/18 11:35:21;;;;;;;1.97;1.67;;;;;;;6.50;46.23;94415.22;4926214;28;20356;-64
2022/04/18 11:37:47;;;;;;;1.30;1.20;;;;;;;6.54;45.50;94419.19;4929629;29;20361;-64
2022/04/18 11:40:14;;;;;;;1.83;1.60;;;;;;;6.80;45.24;94421.16;4950118;28;20387;-64
2022/04/18 11:42:41;;;;;;;1.40;1.30;;;;;;;7.07;44.73;94415.94;4930681;28;20252;-67
2022/04/18 11:45:20;;;;;;;1.70;1.60;;;;;;;7.05;44.70;94414.44;4947320;28;20218;-64
2022/04/18 11:47:47;;;;;;;4.73;2.37;;;;;;;7.16;44.68;94419.47;4923408;28;20297;-64
2022/04/18 11:50:15;;;;;;;3.43;1.70;;;;;;;7.30;44.14;94420.81;4928685;28;20247;-65
2022/04/18 11:52:41;;;;;;;1.70;1.60;;;;;;;7.33;43.70;94414.47;4944255;28;20232;-64
2022/04/18 11:55:14;;;;;;;4.67;3.23;;;;;;;7.46;44.99;94420.97;4949833;28;20229;-68